PROFILE

 METAR AND TAF INFORMATION
ADDS - METARS form results

(2021 UTC 18 February 2019)
http://aviationweather.gov/metar/data/
 
DNPO 182000Z 21003KT 3000 HZ NSC 30/26 Q1008 NOSIG
TAF DNPO 181545Z 1818/1924 VRB02KT 3000 HZ NSC TEMPO 1904/1908 1200 TEMPO 1908/1910 32008KT 5000 

 AIRPORT MAP

 RUNWAY INFORMATION
Runway 03 Runway length 9846 ft Runway width 197 ft
Runway elevation 82 ft Runway displaced threshold 0 ft Runway heading 28
Runway 21 Runway length 9846 ft Runway width 197 ft
Runway elevation 87 ft Runway displaced threshold 0 ft Runway heading 208

 AIRPORT FREQUENCIES
Type APP Name APP Frequency 124.9 MHZ
Type ATIS Name ATIS Frequency 123.8 MHZ
Type TWR Name TWR Frequency 118.9 MHZ

 AIRPORT NEAR NAVIGATION AIDS
Type NDB Name Port Harcourt Frequency 370 KHZ
Type VOR-DME Name Port Harcourt Frequency 113500 KHZ